Погода Чиколоапан-де-Хуарезна неделю

Мехико, Мексика

26 февраля-03 марта
  • 26февраля
    Сегодня
    +10°
    +28°
    Ясно и безоблачно
    ВремяПогодаТемператураВлажностьДавлениеВетер, м/сВероятность осадков
    00:00Практически безоблачно+18°C27 %594 мм3.0 м/с2 %
    03:00Ясно и безоблачно+14°C25 %591 мм2.1 м/с2 %
    06:00Ясно и безоблачно+12°C25 %591 мм2.1 м/с2 %
    09:00Ясно и безоблачно+16°C22 %594 мм1.4 м/с2 %
    12:00Ясно и безоблачно+24°C12 %595 мм1.7 м/с2 %
    15:00Ясно и безоблачно+27°C6 %593 мм2.2 м/с2 %
    18:00Ясно и безоблачно+27°C8 %592 мм3.4 м/с2 %
    21:00Ясно и безоблачно+21°C25 %592 мм3.0 м/с2 %
  • 27февраля
    Вторник
    +11°
    +29°
    Ясно и безоблачно
    ВремяПогодаТемператураВлажностьДавлениеВетер, м/сВероятность осадков
    00:00Ясно и безоблачно+18°C30 %592 мм2.9 м/с2 %
    03:00Ясно и безоблачно+14°C32 %589 мм2.0 м/с2 %
    06:00Ясно и безоблачно+12°C33 %589 мм1.9 м/с2 %
    09:00Ясно и безоблачно+16°C23 %592 мм1.5 м/с2 %
    12:00Ясно и безоблачно+24°C14 %593 мм2.0 м/с2 %
    15:00Ясно и безоблачно+27°C8 %591 мм1.8 м/с2 %
    18:00Ясно и безоблачно+27°C14 %591 мм4.0 м/с2 %
    21:00Ясно и безоблачно+21°C27 %590 мм3.6 м/с2 %
  • 28февраля
    Среда
    +9°
    +28°
    Облачно с прояснениями
    ВремяПогодаТемператураВлажностьДавлениеВетер, м/сВероятность осадков
    00:00Ясно и безоблачно+19°C34 %590 мм2.9 м/с2 %
    03:00Ясно и безоблачно+15°C38 %588 мм2.4 м/с2 %
    06:00Ясно и безоблачно+13°C35 %588 мм2.1 м/с2 %
    09:00Ясно и безоблачно+17°C33 %592 мм1.6 м/с2 %
    12:00Практически безоблачно+24°C20 %593 мм2.3 м/с2 %
    15:00Облачно с прояснениями+27°C13 %592 мм1.9 м/с7 %
    18:00Практически безоблачно+27°C22 %592 мм4.6 м/с9 %
    21:00Ясно и безоблачно+21°C33 %592 мм4.6 м/с12 %
  • 29февраля
    Четверг
    +11°
    +27°
    Облачно с прояснениями
    ВремяПогодаТемператураВлажностьДавлениеВетер, м/сВероятность осадков
    00:00Ясно и безоблачно+19°C36 %593 мм4.1 м/с3 %
    03:00Практически безоблачно+14°C64 %591 мм3.1 м/с2 %
    06:00Ясно и безоблачно+12°C64 %590 мм3.0 м/с4 %
    09:00Ясно и безоблачно+14°C62 %593 мм2.0 м/с3 %
    12:00Небольшая облачность+22°C30 %594 мм2.0 м/с3 %
    15:00Облачно с прояснениями+27°C15 %593 мм2.8 м/с17 %
    18:00Небольшая облачность+27°C16 %593 мм5.7 м/с15 %
    21:00Ясно и безоблачно+21°C26 %592 мм3.6 м/с3 %
Мы используем cookies
Соглашаюсь